Terminal Aerodrome Forecast
Issued by NWS Hastings, NE

Home | Current Version | Previous Version | Text Only | Print | Product List | Glossary On
Versions: 1 2 3 4 5 6 7 8 9 10 11 12 13 14 15 16 17 18 19 20 21 22 23 24 25 26 27 28 29 30 31 32 33 34
000
FTUS43 KGID 172225 AAA
TAFGRI
TAF AMD
KGRI 172225Z 1722/1818 01012KT P6SM BKN200
     FM180000 36016KT P6SM BKN130
     FM180600 35018G27KT 5SM -RA OVC020
     FM180900 34021G29KT 2SM -RASN OVC020
     FM181000 34019G27KT P6SM VCSH SCT020 BKN050
     FM181700 32023G32KT P6SM FEW040=

USA.gov is the U.S. government's official web portal to all federal, state and local government web resources and services.